sensor_id;sensor_type;location;lat;lon;timestamp;pressure;altitude;pressure_sealevel;temperature;humidity
8575;BME280;4325;42.520;27.448;2023-04-09T00:02:15;101619.22;;;8.50;100.00
8575;BME280;4325;42.520;27.448;2023-04-09T00:04:42;101625.66;;;8.44;100.00
8575;BME280;4325;42.520;27.448;2023-04-09T00:07:09;101617.34;;;8.39;100.00
8575;BME280;4325;42.520;27.448;2023-04-09T00:09:37;101625.59;;;8.32;100.00
8575;BME280;4325;42.520;27.448;2023-04-09T00:12:04;101621.69;;;8.28;100.00
8575;BME280;4325;42.520;27.448;2023-04-09T00:14:31;101626.78;;;8.25;100.00
8575;BME280;4325;42.520;27.448;2023-04-09T00:16:58;101622.25;;;8.19;100.00
8575;BME280;4325;42.520;27.448;2023-04-09T00:19:25;101620.69;;;8.11;100.00
8575;BME280;4325;42.520;27.448;2023-04-09T00:21:52;101620.78;;;8.05;100.00
8575;BME280;4325;42.520;27.448;2023-04-09T00:24:19;101625.72;;;7.96;100.00
8575;BME280;4325;42.520;27.448;2023-04-09T00:26:47;101613.59;;;7.80;100.00
8575;BME280;4325;42.520;27.448;2023-04-09T00:29:14;101625.69;;;7.84;100.00
8575;BME280;4325;42.520;27.448;2023-04-09T00:31:41;101631.63;;;7.81;100.00
8575;BME280;4325;42.520;27.448;2023-04-09T00:34:08;101625.91;;;7.71;100.00
8575;BME280;4325;42.520;27.448;2023-04-09T00:36:34;101626.81;;;7.65;100.00
8575;BME280;4325;42.520;27.448;2023-04-09T00:39:01;101628.94;;;7.63;100.00
8575;BME280;4325;42.520;27.448;2023-04-09T00:41:28;101622.97;;;7.55;100.00
8575;BME280;4325;42.520;27.448;2023-04-09T00:43:56;101624.41;;;7.57;100.00
8575;BME280;4325;42.520;27.448;2023-04-09T00:46:23;101621.53;;;7.52;100.00
8575;BME280;4325;42.520;27.448;2023-04-09T00:48:50;101627.63;;;7.54;100.00
8575;BME280;4325;42.520;27.448;2023-04-09T00:51:17;101625.03;;;7.59;100.00
8575;BME280;4325;42.520;27.448;2023-04-09T00:53:45;101631.38;;;7.71;100.00
8575;BME280;4325;42.520;27.448;2023-04-09T00:56:14;101624.50;;;7.80;100.00
8575;BME280;4325;42.520;27.448;2023-04-09T00:58:42;101622.66;;;7.92;100.00
8575;BME280;4325;42.520;27.448;2023-04-09T01:01:10;101626.25;;;8.05;100.00
8575;BME280;4325;42.520;27.448;2023-04-09T01:03:37;101626.97;;;8.12;100.00
8575;BME280;4325;42.520;27.448;2023-04-09T01:06:07;101629.50;;;8.25;100.00
8575;BME280;4325;42.520;27.448;2023-04-09T01:08:42;101624.44;;;8.40;100.00
8575;BME280;4325;42.520;27.448;2023-04-09T01:11:18;101625.91;;;8.54;100.00
8575;BME280;4325;42.520;27.448;2023-04-09T01:13:49;101627.91;;;8.70;100.00
8575;BME280;4325;42.520;27.448;2023-04-09T01:16:22;101625.88;;;8.77;100.00
8575;BME280;4325;42.520;27.448;2023-04-09T01:18:52;101623.28;;;8.82;100.00
8575;BME280;4325;42.520;27.448;2023-04-09T01:21:26;101623.28;;;8.82;100.00
8575;BME280;4325;42.520;27.448;2023-04-09T01:24:01;101612.09;;;8.72;100.00
8575;BME280;4325;42.520;27.448;2023-04-09T01:26:43;101627.66;;;8.83;100.00
8575;BME280;4325;42.520;27.448;2023-04-09T01:29:16;101623.28;;;8.82;100.00
8575;BME280;4325;42.520;27.448;2023-04-09T01:31:45;101621.25;;;8.78;100.00
8575;BME280;4325;42.520;27.448;2023-04-09T01:34:15;101622.56;;;8.75;100.00
8575;BME280;4325;42.520;27.448;2023-04-09T01:36:54;101611.41;;;8.65;100.00
8575;BME280;4325;42.520;27.448;2023-04-09T01:39:22;101617.56;;;8.72;100.00
8575;BME280;4325;42.520;27.448;2023-04-09T01:41:49;101611.16;;;8.78;100.00
8575;BME280;4325;42.520;27.448;2023-04-09T01:44:18;101613.19;;;8.83;100.00
8575;BME280;4325;42.520;27.448;2023-04-09T01:46:46;101619.59;;;8.88;100.00
8575;BME280;4325;42.520;27.448;2023-04-09T01:49:14;101614.22;;;8.93;100.00
8575;BME280;4325;42.520;27.448;2023-04-09T01:51:42;101624.19;;;8.99;100.00
8575;BME280;4325;42.520;27.448;2023-04-09T01:54:10;101623.22;;;9.05;100.00
8575;BME280;4325;42.520;27.448;2023-04-09T01:56:41;101622.88;;;9.13;100.00
8575;BME280;4325;42.520;27.448;2023-04-09T01:59:08;101626.53;;;9.19;100.00
8575;BME280;4325;42.520;27.448;2023-04-09T02:01:40;101614.63;;;9.25;100.00
8575;BME280;4325;42.520;27.448;2023-04-09T02:04:11;101621.88;;;9.31;100.00
8575;BME280;4325;42.520;27.448;2023-04-09T02:06:49;101609.97;;;9.37;100.00
8575;BME280;4325;42.520;27.448;2023-04-09T02:09:19;101618.16;;;9.37;100.00
8575;BME280;4325;42.520;27.448;2023-04-09T02:11:47;101625.56;;;9.37;100.00
8575;BME280;4325;42.520;27.448;2023-04-09T02:14:15;101612.38;;;9.34;100.00
8575;BME280;4325;42.520;27.448;2023-04-09T02:16:45;101602.50;;;9.32;100.00
8575;BME280;4325;42.520;27.448;2023-04-09T02:19:12;101606.78;;;9.28;100.00
8575;BME280;4325;42.520;27.448;2023-04-09T02:21:40;101608.59;;;9.23;100.00
8575;BME280;4325;42.520;27.448;2023-04-09T02:24:06;101613.72;;;9.19;100.00
8575;BME280;4325;42.520;27.448;2023-04-09T02:26:33;101606.38;;;9.08;100.00
8575;BME280;4325;42.520;27.448;2023-04-09T02:29:00;101610.66;;;9.04;100.00
8575;BME280;4325;42.520;27.448;2023-04-09T02:31:28;101613.84;;;9.01;100.00
8575;BME280;4325;42.520;27.448;2023-04-09T02:33:56;101616.13;;;9.04;100.00
8575;BME280;4325;42.520;27.448;2023-04-09T02:36:23;101603.53;;;9.03;100.00
8575;BME280;4325;42.520;27.448;2023-04-09T02:38:50;101615.75;;;9.01;100.00
8575;BME280;4325;42.520;27.448;2023-04-09T02:41:17;101609.56;;;9.05;100.00
8575;BME280;4325;42.520;27.448;2023-04-09T02:43:44;101614.34;;;9.10;100.00
8575;BME280;4325;42.520;27.448;2023-04-09T02:46:11;101616.94;;;9.16;100.00
8575;BME280;4325;42.520;27.448;2023-04-09T02:48:38;101623.44;;;9.15;100.00
8575;BME280;4325;42.520;27.448;2023-04-09T02:51:06;101615.84;;;9.17;100.00
8575;BME280;4325;42.520;27.448;2023-04-09T02:53:33;101618.81;;;9.16;100.00
8575;BME280;4325;42.520;27.448;2023-04-09T02:56:02;101619.66;;;9.16;100.00
8575;BME280;4325;42.520;27.448;2023-04-09T02:58:29;101610.38;;;9.17;100.00
8575;BME280;4325;42.520;27.448;2023-04-09T03:00:56;101619.19;;;9.19;100.00
8575;BME280;4325;42.520;27.448;2023-04-09T03:03:23;101622.50;;;9.21;100.00
8575;BME280;4325;42.520;27.448;2023-04-09T03:05:49;101621.66;;;9.21;100.00
8575;BME280;4325;42.520;27.448;2023-04-09T03:08:18;101618.69;;;9.22;100.00
8575;BME280;4325;42.520;27.448;2023-04-09T03:10:44;101608.94;;;9.26;100.00
8575;BME280;4325;42.520;27.448;2023-04-09T03:13:11;101620.34;;;9.23;100.00
8575;BME280;4325;42.520;27.448;2023-04-09T03:15:38;101624.16;;;9.22;100.00
8575;BME280;4325;42.520;27.448;2023-04-09T03:18:05;101623.22;;;9.17;100.00
8575;BME280;4325;42.520;27.448;2023-04-09T03:20:32;101622.28;;;9.11;100.00
8575;BME280;4325;42.520;27.448;2023-04-09T03:23:02;101625.59;;;9.13;100.00
8575;BME280;4325;42.520;27.448;2023-04-09T03:25:30;101618.97;;;9.09;100.00
8575;BME280;4325;42.520;27.448;2023-04-09T03:27:57;101616.13;;;9.04;100.00
8575;BME280;4325;42.520;27.448;2023-04-09T03:30:24;101621.59;;;9.04;100.00
8575;BME280;4325;42.520;27.448;2023-04-09T03:32:51;101622.06;;;9.01;100.00
8575;BME280;4325;42.520;27.448;2023-04-09T03:35:18;101626.81;;;8.94;100.00
8575;BME280;4325;42.520;27.448;2023-04-09T03:37:45;101632.03;;;8.84;100.00
8575;BME280;4325;42.520;27.448;2023-04-09T03:40:12;101636.56;;;8.79;100.00
8575;BME280;4325;42.520;27.448;2023-04-09T03:42:42;101628.97;;;8.69;100.00
8575;BME280;4325;42.520;27.448;2023-04-09T03:45:09;101624.00;;;8.66;100.00
8575;BME280;4325;42.520;27.448;2023-04-09T03:47:36;101626.00;;;8.59;100.00
8575;BME280;4325;42.520;27.448;2023-04-09T03:50:04;101630.84;;;8.57;100.00
8575;BME280;4325;42.520;27.448;2023-04-09T03:52:31;101628.00;;;8.52;100.00
8575;BME280;4325;42.520;27.448;2023-04-09T03:54:58;101624.22;;;8.53;100.00
8575;BME280;4325;42.520;27.448;2023-04-09T03:57:24;101631.69;;;8.57;100.00
8575;BME280;4325;42.520;27.448;2023-04-09T03:59:53;101637.16;;;8.69;100.00
8575;BME280;4325;42.520;27.448;2023-04-09T04:02:20;101644.75;;;8.79;100.00
8575;BME280;4325;42.520;27.448;2023-04-09T04:04:46;101644.25;;;8.93;100.00
8575;BME280;4325;42.520;27.448;2023-04-09T04:07:13;101638.31;;;9.08;100.00
8575;BME280;4325;42.520;27.448;2023-04-09T04:09:40;101651.47;;;9.22;100.00
8575;BME280;4325;42.520;27.448;2023-04-09T04:12:07;101655.63;;;9.37;100.00
8575;BME280;4325;42.520;27.448;2023-04-09T04:14:34;101652.84;;;9.48;100.00
8575;BME280;4325;42.520;27.448;2023-04-09T04:17:02;101655.66;;;9.65;100.00
8575;BME280;4325;42.520;27.448;2023-04-09T04:19:29;101655.84;;;9.75;100.00
8575;BME280;4325;42.520;27.448;2023-04-09T04:21:56;101648.44;;;9.87;100.00
8575;BME280;4325;42.520;27.448;2023-04-09T04:24:23;101658.56;;;10.03;100.00
8575;BME280;4325;42.520;27.448;2023-04-09T04:26:50;101654.50;;;10.17;100.00
8575;BME280;4325;42.520;27.448;2023-04-09T04:29:16;101650.59;;;10.30;100.00
8575;BME280;4325;42.520;27.448;2023-04-09T04:31:43;101654.34;;;10.40;100.00
8575;BME280;4325;42.520;27.448;2023-04-09T04:34:12;101656.16;;;10.51;100.00
8575;BME280;4325;42.520;27.448;2023-04-09T04:36:38;101663.41;;;10.57;100.00
8575;BME280;4325;42.520;27.448;2023-04-09T04:39:05;101656.34;;;10.61;100.00
8575;BME280;4325;42.520;27.448;2023-04-09T04:41:32;101657.34;;;10.72;100.00
8575;BME280;4325;42.520;27.448;2023-04-09T04:43:59;101656.72;;;10.87;100.00
8575;BME280;4325;42.520;27.448;2023-04-09T04:46:26;101664.00;;;10.98;100.00
8575;BME280;4325;42.520;27.448;2023-04-09T04:48:53;101665.34;;;11.12;100.00
8575;BME280;4325;42.520;27.448;2023-04-09T04:51:21;101666.84;;;11.24;100.00
8575;BME280;4325;42.520;27.448;2023-04-09T04:53:48;101675.50;;;11.33;100.00
8575;BME280;4325;42.520;27.448;2023-04-09T04:56:15;101674.84;;;11.48;100.00
8575;BME280;4325;42.520;27.448;2023-04-09T04:58:42;101676.47;;;11.65;100.00
8575;BME280;4325;42.520;27.448;2023-04-09T05:01:09;101669.59;;;11.84;100.00
8575;BME280;4325;42.520;27.448;2023-04-09T05:03:35;101673.13;;;12.07;100.00
8575;BME280;4325;42.520;27.448;2023-04-09T05:06:02;101676.31;;;12.25;99.75
8575;BME280;4325;42.520;27.448;2023-04-09T05:08:31;101681.16;;;12.45;98.77
8575;BME280;4325;42.520;27.448;2023-04-09T05:10:57;101681.59;;;12.64;97.91
8575;BME280;4325;42.520;27.448;2023-04-09T05:13:24;101671.06;;;12.82;95.99
8575;BME280;4325;42.520;27.448;2023-04-09T05:15:51;101677.19;;;12.94;94.50
8575;BME280;4325;42.520;27.448;2023-04-09T05:18:18;101677.59;;;13.13;93.84
8575;BME280;4325;42.520;27.448;2023-04-09T05:20:45;101676.03;;;13.27;92.44
8575;BME280;4325;42.520;27.448;2023-04-09T05:23:12;101674.75;;;13.45;91.20
8575;BME280;4325;42.520;27.448;2023-04-09T05:25:40;101674.00;;;13.64;89.34
8575;BME280;4325;42.520;27.448;2023-04-09T05:28:06;101677.91;;;13.78;87.13
8575;BME280;4325;42.520;27.448;2023-04-09T05:30:35;101671.59;;;13.88;86.51
8575;BME280;4325;42.520;27.448;2023-04-09T05:33:02;101678.22;;;13.87;85.43
8575;BME280;4325;42.520;27.448;2023-04-09T05:35:29;101674.34;;;13.83;86.03
8575;BME280;4325;42.520;27.448;2023-04-09T05:37:56;101679.88;;;13.88;87.26
8575;BME280;4325;42.520;27.448;2023-04-09T05:40:23;101679.38;;;14.01;86.53
8575;BME280;4325;42.520;27.448;2023-04-09T05:42:51;101681.59;;;14.19;85.88
8575;BME280;4325;42.520;27.448;2023-04-09T05:45:18;101680.84;;;14.39;83.75
8575;BME280;4325;42.520;27.448;2023-04-09T05:47:44;101685.00;;;14.57;82.28
8575;BME280;4325;42.520;27.448;2023-04-09T05:50:11;101685.25;;;14.75;81.30
8575;BME280;4325;42.520;27.448;2023-04-09T05:52:38;101687.16;;;14.95;79.16
8575;BME280;4325;42.520;27.448;2023-04-09T05:55:05;101690.97;;;15.24;76.73
8575;BME280;4325;42.520;27.448;2023-04-09T05:57:34;101685.94;;;15.56;74.25
8575;BME280;4325;42.520;27.448;2023-04-09T06:00:02;101683.28;;;15.95;72.81
8575;BME280;4325;42.520;27.448;2023-04-09T06:02:29;101685.53;;;16.37;70.30
8575;BME280;4325;42.520;27.448;2023-04-09T06:04:56;101693.59;;;16.67;67.25
8575;BME280;4325;42.520;27.448;2023-04-09T06:07:23;101700.13;;;16.81;65.17
8575;BME280;4325;42.520;27.448;2023-04-09T06:09:50;101694.75;;;16.61;63.95
8575;BME280;4325;42.520;27.448;2023-04-09T06:12:17;101692.75;;;16.33;64.46
8575;BME280;4325;42.520;27.448;2023-04-09T06:14:43;101688.50;;;15.97;66.50
8575;BME280;4325;42.520;27.448;2023-04-09T06:17:14;101702.22;;;15.58;69.21
8575;BME280;4325;42.520;27.448;2023-04-09T06:19:40;101696.50;;;15.24;71.20
8575;BME280;4325;42.520;27.448;2023-04-09T06:22:08;101694.91;;;14.93;73.42
8575;BME280;4325;42.520;27.448;2023-04-09T06:24:35;101705.09;;;14.82;75.89
8575;BME280;4325;42.520;27.448;2023-04-09T06:27:02;101703.47;;;14.81;77.16
8575;BME280;4325;42.520;27.448;2023-04-09T06:29:29;101703.72;;;14.80;77.43
8575;BME280;4325;42.520;27.448;2023-04-09T06:31:56;101705.09;;;14.82;78.30
8575;BME280;4325;42.520;27.448;2023-04-09T06:34:24;101706.47;;;14.85;78.81
8575;BME280;4325;42.520;27.448;2023-04-09T06:36:51;101698.22;;;14.75;78.64
8575;BME280;4325;42.520;27.448;2023-04-09T06:39:17;101707.03;;;14.67;79.72
8575;BME280;4325;42.520;27.448;2023-04-09T06:41:44;101706.22;;;14.66;80.54
8575;BME280;4325;42.520;27.448;2023-04-09T06:44:12;101702.06;;;14.53;81.52
8575;BME280;4325;42.520;27.448;2023-04-09T06:46:39;101708.66;;;14.37;82.00
8575;BME280;4325;42.520;27.448;2023-04-09T06:49:05;101707.78;;;14.27;83.94
8575;BME280;4325;42.520;27.448;2023-04-09T06:51:34;101692.34;;;14.11;85.57
8575;BME280;4325;42.520;27.448;2023-04-09T06:54:00;101696.47;;;14.13;86.67
8575;BME280;4325;42.520;27.448;2023-04-09T06:56:27;101698.13;;;14.24;87.69
8575;BME280;4325;42.520;27.448;2023-04-09T06:58:54;101706.41;;;14.29;84.53
8575;BME280;4325;42.520;27.448;2023-04-09T07:01:21;101705.84;;;14.22;85.21
8575;BME280;4325;42.520;27.448;2023-04-09T07:03:48;101709.16;;;14.24;86.55
8575;BME280;4325;42.520;27.448;2023-04-09T07:06:15;101704.25;;;14.31;85.46
8575;BME280;4325;42.520;27.448;2023-04-09T07:08:43;101703.41;;;14.41;85.50
8575;BME280;4325;42.520;27.448;2023-04-09T07:11:10;101700.44;;;14.58;85.65
8575;BME280;4325;42.520;27.448;2023-04-09T07:13:37;101699.31;;;14.64;81.08
8575;BME280;4325;42.520;27.448;2023-04-09T07:16:04;101703.47;;;14.71;80.80
8575;BME280;4325;42.520;27.448;2023-04-09T07:18:31;101710.91;;;14.86;80.77
8575;BME280;4325;42.520;27.448;2023-04-09T07:20:58;101711.44;;;14.68;78.99
8575;BME280;4325;42.520;27.448;2023-04-09T07:23:25;101724.13;;;14.84;80.23
8575;BME280;4325;42.520;27.448;2023-04-09T07:25:53;101720.00;;;15.01;78.13
8575;BME280;4325;42.520;27.448;2023-04-09T07:28:20;101713.91;;;15.14;77.15
8575;BME280;4325;42.520;27.448;2023-04-09T07:30:47;101724.09;;;15.24;76.13
8575;BME280;4325;42.520;27.448;2023-04-09T07:33:13;101723.53;;;15.37;73.69
8575;BME280;4325;42.520;27.448;2023-04-09T07:35:40;101716.84;;;15.58;72.58
8575;BME280;4325;42.520;27.448;2023-04-09T07:38:07;101725.13;;;15.58;70.55
8575;BME280;4325;42.520;27.448;2023-04-09T07:40:34;101727.28;;;15.76;69.54
8575;BME280;4325;42.520;27.448;2023-04-09T07:43:03;101717.94;;;16.65;66.20
8575;BME280;4325;42.520;27.448;2023-04-09T07:45:30;101731.47;;;18.42;59.11
8575;BME280;4325;42.520;27.448;2023-04-09T07:47:57;101731.38;;;19.63;52.74
8575;BME280;4325;42.520;27.448;2023-04-09T07:50:24;101735.81;;;20.54;49.00
8575;BME280;4325;42.520;27.448;2023-04-09T07:52:51;101734.38;;;21.85;44.40
8575;BME280;4325;42.520;27.448;2023-04-09T07:55:18;101723.50;;;22.74;41.11
8575;BME280;4325;42.520;27.448;2023-04-09T07:57:45;101721.53;;;24.63;37.40
8575;BME280;4325;42.520;27.448;2023-04-09T08:00:15;101725.41;;;24.79;36.33
8575;BME280;4325;42.520;27.448;2023-04-09T08:02:42;101724.53;;;24.58;35.73
8575;BME280;4325;42.520;27.448;2023-04-09T08:05:09;101723.19;;;25.18;34.76
8575;BME280;4325;42.520;27.448;2023-04-09T08:07:36;101732.31;;;25.27;34.37
8575;BME280;4325;42.520;27.448;2023-04-09T08:10:03;101721.59;;;24.34;36.02
8575;BME280;4325;42.520;27.448;2023-04-09T08:12:30;101731.13;;;25.16;35.17
8575;BME280;4325;42.520;27.448;2023-04-09T08:14:57;101728.66;;;26.32;32.59
8575;BME280;4325;42.520;27.448;2023-04-09T08:17:25;101724.63;;;27.71;31.01
8575;BME280;4325;42.520;27.448;2023-04-09T08:19:52;101723.78;;;28.91;29.20
8575;BME280;4325;42.520;27.448;2023-04-09T08:22:19;101731.66;;;29.65;27.37
8575;BME280;4325;42.520;27.448;2023-04-09T08:24:50;101722.56;;;29.11;27.87
8575;BME280;4325;42.520;27.448;2023-04-09T08:27:17;101725.63;;;30.71;26.62
8575;BME280;4325;42.520;27.448;2023-04-09T08:29:44;101719.22;;;31.45;25.38
8575;BME280;4325;42.520;27.448;2023-04-09T08:32:11;101724.78;;;31.38;25.16
8575;BME280;4325;42.520;27.448;2023-04-09T08:34:39;101722.63;;;32.80;24.45
8575;BME280;4325;42.520;27.448;2023-04-09T08:37:06;101735.84;;;34.12;22.88
8575;BME280;4325;42.520;27.448;2023-04-09T08:39:33;101736.66;;;33.80;22.54
8575;BME280;4325;42.520;27.448;2023-04-09T08:42:00;101739.09;;;33.54;22.29
8575;BME280;4325;42.520;27.448;2023-04-09T08:44:28;101736.59;;;31.87;23.98
8575;BME280;4325;42.520;27.448;2023-04-09T08:46:55;101741.78;;;29.66;25.25
8575;BME280;4325;42.520;27.448;2023-04-09T08:49:23;101737.25;;;29.84;25.98
8575;BME280;4325;42.520;27.448;2023-04-09T08:51:51;101732.56;;;31.07;25.02
8575;BME280;4325;42.520;27.448;2023-04-09T08:54:18;101727.78;;;31.95;24.08
8575;BME280;4325;42.520;27.448;2023-04-09T08:56:45;101729.63;;;30.67;24.57
8575;BME280;4325;42.520;27.448;2023-04-09T08:59:14;101732.78;;;31.28;24.73
8575;BME280;4325;42.520;27.448;2023-04-09T09:01:41;101727.66;;;31.41;23.79
8575;BME280;4325;42.520;27.448;2023-04-09T09:04:08;101726.41;;;31.79;24.08
8575;BME280;4325;42.520;27.448;2023-04-09T09:06:37;101731.00;;;31.13;24.45
8575;BME280;4325;42.520;27.448;2023-04-09T09:09:07;101729.91;;;31.21;24.83
8575;BME280;4325;42.520;27.448;2023-04-09T09:11:36;101730.50;;;33.22;22.86
8575;BME280;4325;42.520;27.448;2023-04-09T09:14:04;101722.63;;;32.80;22.84
8575;BME280;4325;42.520;27.448;2023-04-09T09:16:32;101727.72;;;33.57;21.51
8575;BME280;4325;42.520;27.448;2023-04-09T09:19:00;101731.69;;;33.17;22.19
8575;BME280;4325;42.520;27.448;2023-04-09T09:21:28;101730.94;;;32.41;22.93
8575;BME280;4325;42.520;27.448;2023-04-09T09:23:56;101721.38;;;32.06;22.83
8575;BME280;4325;42.520;27.448;2023-04-09T09:26:25;101728.13;;;34.02;21.80
8575;BME280;4325;42.520;27.448;2023-04-09T09:28:53;101725.56;;;35.91;20.60
8575;BME280;4325;42.520;27.448;2023-04-09T09:31:21;101726.91;;;34.06;21.27
8575;BME280;4325;42.520;27.448;2023-04-09T09:33:48;101723.72;;;31.93;22.82
8575;BME280;4325;42.520;27.448;2023-04-09T09:36:29;101722.44;;;34.05;21.63
8575;BME280;4325;42.520;27.448;2023-04-09T09:38:58;101721.06;;;35.97;20.01
8575;BME280;4325;42.520;27.448;2023-04-09T09:41:29;101725.00;;;34.97;20.75
8575;BME280;4325;42.520;27.448;2023-04-09T09:43:56;101736.09;;;34.77;20.67
8575;BME280;4325;42.520;27.448;2023-04-09T09:46:24;101722.84;;;33.82;21.09
8575;BME280;4325;42.520;27.448;2023-04-09T09:48:52;101718.94;;;32.04;22.88
8575;BME280;4325;42.520;27.448;2023-04-09T09:51:21;101723.34;;;32.59;22.55
8575;BME280;4325;42.520;27.448;2023-04-09T09:53:54;101719.19;;;30.71;24.34
8575;BME280;4325;42.520;27.448;2023-04-09T09:56:23;101718.63;;;32.95;22.78
8575;BME280;4325;42.520;27.448;2023-04-09T09:59:01;101708.00;;;32.71;22.71
8575;BME280;4325;42.520;27.448;2023-04-09T10:01:31;101712.69;;;34.13;21.94
8575;BME280;4325;42.520;27.448;2023-04-09T10:03:59;101701.41;;;35.62;20.78
8575;BME280;4325;42.520;27.448;2023-04-09T10:06:27;101706.78;;;36.01;19.93
8575;BME280;4325;42.520;27.448;2023-04-09T10:08:56;101704.59;;;36.15;20.16
8575;BME280;4325;42.520;27.448;2023-04-09T10:11:24;101709.16;;;36.47;19.68
8575;BME280;4325;42.520;27.448;2023-04-09T10:13:55;101704.53;;;37.17;19.22
8575;BME280;4325;42.520;27.448;2023-04-09T10:16:24;101706.88;;;35.39;20.38
8575;BME280;4325;42.520;27.448;2023-04-09T10:18:51;101706.78;;;34.87;21.18
8575;BME280;4325;42.520;27.448;2023-04-09T10:21:25;101706.28;;;34.96;21.00
8575;BME280;4325;42.520;27.448;2023-04-09T10:23:55;101698.75;;;34.68;20.53
8575;BME280;4325;42.520;27.448;2023-04-09T10:26:24;101696.94;;;31.87;23.45
8575;BME280;4325;42.520;27.448;2023-04-09T10:29:03;101697.22;;;32.26;23.57
8575;BME280;4325;42.520;27.448;2023-04-09T10:32:02;101696.84;;;34.16;21.88
8575;BME280;4325;42.520;27.448;2023-04-09T10:34:31;101696.16;;;35.57;20.32
8575;BME280;4325;42.520;27.448;2023-04-09T10:37:00;101686.69;;;35.15;20.18
8575;BME280;4325;42.520;27.448;2023-04-09T10:39:30;101684.44;;;35.92;20.33
8575;BME280;4325;42.520;27.448;2023-04-09T10:41:59;101676.28;;;35.46;19.79
8575;BME280;4325;42.520;27.448;2023-04-09T10:44:27;101678.31;;;35.53;19.90
8575;BME280;4325;42.520;27.448;2023-04-09T10:46:57;101659.25;;;35.87;20.06
8575;BME280;4325;42.520;27.448;2023-04-09T10:49:25;101667.31;;;35.99;20.29
8575;BME280;4325;42.520;27.448;2023-04-09T10:51:53;101673.50;;;36.62;19.68
8575;BME280;4325;42.520;27.448;2023-04-09T10:54:40;101671.97;;;36.84;19.45
8575;BME280;4325;42.520;27.448;2023-04-09T10:57:12;101660.25;;;36.41;19.58
8575;BME280;4325;42.520;27.448;2023-04-09T10:59:41;101654.31;;;35.91;19.81
8575;BME280;4325;42.520;27.448;2023-04-09T11:05:18;101648.13;;;33.15;21.71
8575;BME280;4325;42.520;27.448;2023-04-09T11:07:51;101652.22;;;33.49;21.94
8575;BME280;4325;42.520;27.448;2023-04-09T11:10:18;101648.19;;;33.64;21.66
8575;BME280;4325;42.520;27.448;2023-04-09T11:12:46;101652.19;;;33.92;21.61
8575;BME280;4325;42.520;27.448;2023-04-09T11:15:18;101642.31;;;34.45;21.02
8575;BME280;4325;42.520;27.448;2023-04-09T11:17:47;101640.44;;;35.93;20.20
8575;BME280;4325;42.520;27.448;2023-04-09T11:20:15;101634.66;;;36.98;19.38
8575;BME280;4325;42.520;27.448;2023-04-09T11:22:43;101633.44;;;37.72;19.28
8575;BME280;4325;42.520;27.448;2023-04-09T11:25:17;101634.03;;;38.46;18.02
8575;BME280;4325;42.520;27.448;2023-04-09T11:27:44;101636.50;;;36.55;19.25
8575;BME280;4325;42.520;27.448;2023-04-09T11:30:12;101625.59;;;36.76;19.27
8575;BME280;4325;42.520;27.448;2023-04-09T11:32:39;101629.03;;;38.10;18.75
8575;BME280;4325;42.520;27.448;2023-04-09T11:35:11;101619.94;;;38.90;17.66
8575;BME280;4325;42.520;27.448;2023-04-09T11:37:39;101625.50;;;38.97;18.25
8575;BME280;4325;42.520;27.448;2023-04-09T11:40:13;101618.63;;;38.00;18.29
8575;BME280;4325;42.520;27.448;2023-04-09T11:42:41;101626.44;;;36.73;19.04
8575;BME280;4325;42.520;27.448;2023-04-09T11:45:09;101618.00;;;35.99;19.60
8575;BME280;4325;42.520;27.448;2023-04-09T11:47:38;101622.66;;;35.38;20.47
8575;BME280;4325;42.520;27.448;2023-04-09T11:50:06;101601.75;;;35.55;20.01
8575;BME280;4325;42.520;27.448;2023-04-09T11:52:35;101620.38;;;34.42;21.55
8575;BME280;4325;42.520;27.448;2023-04-09T11:55:03;101615.06;;;34.55;21.18
8575;BME280;4325;42.520;27.448;2023-04-09T11:57:40;101610.84;;;33.80;22.05
8575;BME280;4325;42.520;27.448;2023-04-09T12:00:10;101590.25;;;34.52;21.87
8575;BME280;4325;42.520;27.448;2023-04-09T12:02:40;101600.84;;;34.55;21.31
8575;BME280;4325;42.520;27.448;2023-04-09T12:05:09;101589.75;;;35.30;21.12
8575;BME280;4325;42.520;27.448;2023-04-09T12:07:39;101594.75;;;36.04;20.28
8575;BME280;4325;42.520;27.448;2023-04-09T12:10:10;101592.59;;;35.74;20.27
8575;BME280;4325;42.520;27.448;2023-04-09T12:12:42;101587.50;;;36.60;20.14
8575;BME280;4325;42.520;27.448;2023-04-09T12:15:11;101597.59;;;37.44;18.72
8575;BME280;4325;42.520;27.448;2023-04-09T12:17:38;101596.47;;;37.61;19.06
8575;BME280;4325;42.520;27.448;2023-04-09T12:20:06;101593.47;;;38.11;18.37
8575;BME280;4325;42.520;27.448;2023-04-09T12:22:34;101594.84;;;38.03;19.08
8575;BME280;4325;42.520;27.448;2023-04-09T12:25:07;101596.78;;;38.65;18.34
8575;BME280;4325;42.520;27.448;2023-04-09T12:27:34;101590.44;;;37.33;18.44
8575;BME280;4325;42.520;27.448;2023-04-09T12:30:01;101590.03;;;37.08;19.14
8575;BME280;4325;42.520;27.448;2023-04-09T12:32:28;101582.09;;;37.45;18.80
8575;BME280;4325;42.520;27.448;2023-04-09T12:34:55;101582.63;;;37.60;18.81
8575;BME280;4325;42.520;27.448;2023-04-09T12:37:22;101582.75;;;37.96;18.90
8575;BME280;4325;42.520;27.448;2023-04-09T12:39:49;101578.66;;;37.97;18.72
8575;BME280;4325;42.520;27.448;2023-04-09T12:42:17;101574.59;;;38.33;18.58
8575;BME280;4325;42.520;27.448;2023-04-09T12:44:44;101572.31;;;38.25;18.33
8575;BME280;4325;42.520;27.448;2023-04-09T12:47:11;101561.41;;;38.20;18.15
8575;BME280;4325;42.520;27.448;2023-04-09T12:49:38;101558.00;;;37.66;18.92
8575;BME280;4325;42.520;27.448;2023-04-09T12:52:09;101556.50;;;38.01;18.12
8575;BME280;4325;42.520;27.448;2023-04-09T12:54:36;101549.97;;;36.61;19.51
8575;BME280;4325;42.520;27.448;2023-04-09T12:57:04;101543.00;;;36.35;19.48
8575;BME280;4325;42.520;27.448;2023-04-09T12:59:32;101542.31;;;34.54;20.51
8575;BME280;4325;42.520;27.448;2023-04-09T13:01:59;101545.63;;;31.95;23.53
8575;BME280;4325;42.520;27.448;2023-04-09T13:04:26;101536.03;;;29.61;25.92
8575;BME280;4325;42.520;27.448;2023-04-09T13:06:53;101536.16;;;30.31;26.10
8575;BME280;4325;42.520;27.448;2023-04-09T13:09:21;101532.53;;;31.66;24.19